Beautriton — PHQC — position and weather

sailwx.info

Track history (hours):
 
Tides and Currents Weather Stations Pressure Air Temp Water Temp Dewpoint Dewpoint Depression Visibility Wind Speed Wind Dir Waves Ship Positions

Beautriton

Last reported at 2018-Feb-06 19:19 UTC. Time now 2018-Feb-23 16:29 UTC.
Position N 36°50' W 029°13'.
Warning: this ship's position is 16 days out of date.

Length 118 m; draft 6.6 m.

Type: Cargo ship. MMSI: 246215000.

Date/timePositionNaut miles runAvg speedWind from/ knotsBaromVisibWave heightAir tempDewpointWater temp
2018-Feb-06 19:19N 36°50' W 029°13'1212.9
2018-Feb-06 18:23N 36°58' W 029°02'612.9
2018-Feb-06 17:55N 37°02' W 028°56'512.7
2018-Feb-06 17:30N 37°05' W 028°51'612.3
2018-Feb-06 17:00N 37°09' W 028°45'611.9
2018-Feb-06 16:30N 37°13' W 028°40'611.9
2018-Feb-06 16:00N 37°17' W 028°34'612.5
2018-Feb-06 15:30N 37°22' W 028°29'1312.7
2018-Feb-06 14:30N 37°30' W 028°17'612.8
2018-Feb-06 14:00N 37°34' W 028°11'1313.1
2018-Feb-06 13:00N 37°43' W 027°59'612.9
2018-Feb-06 12:30N 37°48' W 027°53'612.6
2018-Feb-06 12:00N 37°52' W 027°47'612.6
2018-Feb-06 11:30N 37°56' W 027°41'612.6
2018-Feb-06 11:00N 38°00' W 027°35'612.8
2018-Feb-06 10:30N 38°04' W 027°28'612.7
2018-Feb-06 10:00N 38°08' W 027°22'612.7
2018-Feb-06 09:30N 38°13' W 027°16'1312.8
2018-Feb-06 08:30N 38°21' W 027°04'612.6
2018-Feb-06 08:00N 38°25' W 026°58'612.3
2018-Feb-06 07:30N 38°29' W 026°52'612.4
2018-Feb-06 07:00N 38°33' W 026°45'612.5
2018-Feb-06 06:30N 38°37' W 026°39'  
2018-Feb-02 02:57N 49°43' W 003°49'811.8
2018-Feb-02 02:15N 49°47' W 003°38'412.4
2018-Feb-02 01:55N 49°49' W 003°32'512.7
2018-Feb-02 01:30N 49°52' W 003°25'612.6
2018-Feb-02 01:00N 49°54' W 003°16'612.2
2018-Feb-02 00:30N 49°57' W 003°07'611.6
2018-Feb-02 00:00N 49°59' W 002°59'510.8
2018-Feb-01 23:30N 50°00' W 002°51'510.1
2018-Feb-01 23:00N 50°01' W 002°43'10 9.1
2018-Feb-01 21:56N 50°04' W 002°29'69 9.8
2018-Feb-01 14:57N 50°23' W 000°45'2114.3
2018-Feb-01 13:30N 50°28' W 000°14'612.9
2018-Feb-01 13:00N 50°30' W 000°04'612.5
2018-Feb-01 12:30N 50°32' E 000°05'611.9
2018-Feb-01 12:01N 50°34' E 000°14'1111.0
2018-Feb-01 11:01N 50°37' E 000°31'510.3
2018-Feb-01 10:30N 50°39' E 000°38'510.4
2018-Feb-01 10:00N 50°42' E 000°44'510.4
2018-Feb-01 09:31N 50°45' E 000°51'611.0
2018-Feb-01 09:00N 50°49' E 000°58'612.1
2018-Feb-01 08:29N 50°52' E 001°06'1414.1
2018-Feb-01 07:30N 51°02' E 001°22'815.1
2018-Feb-01 07:00N 51°06' E 001°31'714.5
2018-Feb-01 06:31N 51°12' E 001°39'713.5
2018-Feb-01 06:00N 51°18' E 001°43'612.6
2018-Feb-01 05:31N 51°24' E 001°45'611.8
2018-Feb-01 05:00N 51°30' E 001°45'611.3
2018-Feb-01 04:30N 51°36' E 001°45'510.8
2018-Feb-01 04:00N 51°41' E 001°45'10 9.7
2018-Feb-01 03:00N 51°50' E 001°40'5 9.8
2018-Feb-01 02:30N 51°53' E 001°33'4 8.5
2018-Feb-01 02:00N 51°56' E 001°28'611.2
2018-Feb-01 01:30N 51°56' E 001°19'2 4.9
2018-Feb-01 01:00N 51°58' E 001°17'2 3.8
2018-Feb-01 00:31N 51°60' E 001°15'3 6.2
2018-Feb-01 00:00N 52°01' E 001°10'1 1.3
2018-Jan-31 22:59N 52°02' E 001°10'0 0.0
2018-Jan-31 22:29N 52°02' E 001°10'0 0.0
2018-Jan-31 20:59N 52°02' E 001°10'0 0.0
2018-Jan-31 20:29N 52°02' E 001°10'0 0.0
2018-Jan-31 19:59N 52°02' E 001°10'0 0.0
2018-Jan-31 19:29N 52°02' E 001°10'0 0.0
2018-Jan-31 18:59N 52°02' E 001°10'0 0.0
2018-Jan-31 18:29N 52°02' E 001°10'0 0.0
2018-Jan-31 17:59N 52°02' E 001°10'0 0.0
2018-Jan-31 17:29N 52°02' E 001°10'0 0.0
2018-Jan-31 16:59N 52°02' E 001°10'0 0.1
2018-Jan-31 16:29N 52°02' E 001°10'0 0.0
2018-Jan-31 15:59N 52°02' E 001°10'0 0.0
2018-Jan-31 15:29N 52°02' E 001°10'0 0.0
2018-Jan-31 14:59N 52°02' E 001°10'0 0.0
2018-Jan-31 14:29N 52°02' E 001°10'0 0.0
2018-Jan-31 12:59N 52°02' E 001°10'0 0.0
2018-Jan-31 12:29N 52°02' E 001°10'0 0.0
2018-Jan-31 11:59N 52°02' E 001°10'0 0.0
2018-Jan-31 11:29N 52°02' E 001°10'0 0.0
2018-Jan-31 10:59N 52°02' E 001°10'0 0.0
2018-Jan-31 10:29N 52°02' E 001°10'0 0.0
2018-Jan-31 09:59N 52°02' E 001°10'0 0.0
2018-Jan-31 09:29N 52°02' E 001°10'0 0.0
2018-Jan-31 08:59N 52°02' E 001°10'0 0.0
2018-Jan-31 08:29N 52°02' E 001°10'0 0.0
2018-Jan-31 07:59N 52°02' E 001°10'0 0.0
2018-Jan-31 07:29N 52°02' E 001°10'0 0.0
2018-Jan-31 06:59N 52°02' E 001°10'0 0.0
2018-Jan-31 06:29N 52°02' E 001°10'0 0.0
2018-Jan-31 05:59N 52°02' E 001°10'0 0.0
2018-Jan-31 05:29N 52°02' E 001°10'0 0.0
2018-Jan-31 04:59N 52°02' E 001°10'0 0.0
2018-Jan-31 04:29N 52°02' E 001°10'0 0.0
2018-Jan-31 03:59N 52°02' E 001°10'0 0.0
2018-Jan-31 03:29N 52°02' E 001°10'0 0.0
2018-Jan-31 02:59N 52°02' E 001°10'0 0.0
2018-Jan-31 02:29N 52°02' E 001°10'0 0.0
2018-Jan-31 01:59N 52°02' E 001°10'0 0.0
2018-Jan-31 01:29N 52°02' E 001°10'0 0.0
2018-Jan-31 00:59N 52°02' E 001°10'0 0.0
2018-Jan-30 23:59N 52°02' E 001°10'0 0.0
2018-Jan-30 23:29N 52°02' E 001°10'0 0.0
2018-Jan-30 22:59N 52°02' E 001°10'0 0.0
2018-Jan-30 22:29N 52°02' E 001°10'0 0.0
2018-Jan-30 21:29N 52°02' E 001°10'0 0.2
2018-Jan-30 20:59N 52°02' E 001°09'0 0.3
2018-Jan-30 20:29N 52°02' E 001°09'0 0.0
2018-Jan-30 19:59N 52°02' E 001°09'0 0.0
2018-Jan-30 19:29N 52°02' E 001°09'0 0.0
2018-Jan-30 18:59N 52°02' E 001°09'0 0.0
2018-Jan-30 18:29N 52°02' E 001°09'0 0.0
2018-Jan-30 17:59N 52°02' E 001°09'0 0.0
2018-Jan-30 17:29N 52°02' E 001°09'0 0.0
2018-Jan-30 16:59N 52°02' E 001°09'0 0.0
2018-Jan-30 16:29N 52°02' E 001°09'0 0.0
2018-Jan-30 15:59N 52°02' E 001°09'0 0.0
2018-Jan-30 15:29N 52°02' E 001°09'0 0.0
2018-Jan-30 14:59N 52°02' E 001°09'0 0.0
2018-Jan-30 14:29N 52°02' E 001°09'0 0.0
2018-Jan-30 13:29N 52°02' E 001°09'0 0.0
2018-Jan-30 12:59N 52°02' E 001°09'0 0.0
2018-Jan-30 12:29N 52°02' E 001°09'0 0.6
2018-Jan-30 12:00N 52°02' E 001°10'3 5.4
2018-Jan-30 11:31N 52°00' E 001°13'8 8.0
2018-Jan-30 10:30N 51°56' E 001°24'5 4.9
2018-Jan-30 09:30N 51°58' E 001°31'0 0.1
2018-Jan-30 08:59N 51°58' E 001°31'0 0.0
2018-Jan-30 08:29N 51°58' E 001°31'0 0.0
2018-Jan-30 07:59N 51°58' E 001°31'0 0.0
2018-Jan-30 07:29N 51°58' E 001°31'0 0.0
2018-Jan-30 06:59N 51°58' E 001°31'0 0.0
2018-Jan-30 06:29N 51°58' E 001°31'0 0.0
2018-Jan-30 05:59N 51°58' E 001°31'0 0.0
2018-Jan-30 05:29N 51°58' E 001°31'0 0.0
2018-Jan-30 04:59N 51°58' E 001°31'0 0.2
2018-Jan-30 04:29N 51°58' E 001°32'0 0.1
2018-Jan-30 03:59N 51°58' E 001°32'0 0.1
2018-Jan-30 03:29N 51°58' E 001°32'0 0.0
2018-Jan-30 02:59N 51°58' E 001°32'0 0.0
2018-Jan-30 02:29N 51°58' E 001°32'0 0.0
2018-Jan-30 01:59N 51°58' E 001°32'0 0.0
2018-Jan-30 01:29N 51°58' E 001°32'0 0.0
2018-Jan-30 00:59N 51°58' E 001°32'0 0.0
2018-Jan-30 00:29N 51°58' E 001°32'0 0.0
2018-Jan-29 23:59N 51°58' E 001°32'0 0.0
2018-Jan-29 23:29N 51°58' E 001°32'0 0.0
2018-Jan-29 22:59N 51°58' E 001°32'0 0.1
2018-Jan-29 22:29N 51°58' E 001°32'0 0.1
2018-Jan-29 21:59N 51°58' E 001°32'0 0.2
2018-Jan-29 21:29N 51°58' E 001°32'0 0.1
2018-Jan-29 20:59N 51°58' E 001°31'0 0.1
2018-Jan-29 20:29N 51°58' E 001°31'0 0.0
2018-Jan-29 19:59N 51°58' E 001°31'0 0.0
2018-Jan-29 19:29N 51°58' E 001°31'0 0.0
2018-Jan-29 18:59N 51°58' E 001°31'0 0.0
2018-Jan-29 18:29N 51°58' E 001°31'0 0.0
2018-Jan-29 17:59N 51°58' E 001°31'0 0.0
2018-Jan-29 17:29N 51°58' E 001°31'0 0.0
2018-Jan-29 16:59N 51°58' E 001°31'0 0.1
2018-Jan-29 16:29N 51°58' E 001°31'0 0.1
2018-Jan-29 15:59N 51°58' E 001°32'0 0.1
2018-Jan-29 15:29N 51°58' E 001°32'0 0.1
2018-Jan-29 14:59N 51°58' E 001°32'0 0.1
2018-Jan-29 14:29N 51°58' E 001°32'0 0.0
2018-Jan-29 13:59N 51°58' E 001°32'0 0.0
2018-Jan-29 13:29N 51°58' E 001°32'0 0.0
2018-Jan-29 12:59N 51°58' E 001°32'0 0.0
2018-Jan-29 12:29N 51°58' E 001°32'0 0.0
2018-Jan-29 11:59N 51°58' E 001°32'0 0.0
2018-Jan-29 11:29N 51°58' E 001°32'0 0.0
2018-Jan-29 10:59N 51°58' E 001°32'0 0.0
2018-Jan-29 10:29N 51°58' E 001°32'0 0.0
2018-Jan-29 09:59N 51°58' E 001°32'0 0.0
2018-Jan-29 09:29N 51°58' E 001°32'0 0.0
2018-Jan-29 08:59N 51°58' E 001°32'0 0.3
2018-Jan-29 08:29N 51°58' E 001°32'0 0.1
2018-Jan-29 07:59N 51°58' E 001°31'0 0.0
2018-Jan-29 07:29N 51°58' E 001°31'0 0.0
2018-Jan-29 06:59N 51°58' E 001°31'0 0.0
2018-Jan-29 06:29N 51°58' E 001°31'0 0.0
2018-Jan-29 05:59N 51°58' E 001°31'0 0.0
2018-Jan-29 05:29N 51°58' E 001°31'0 0.0
2018-Jan-29 04:59N 51°58' E 001°31'0 0.3
2018-Jan-29 04:29N 51°58' E 001°32'0 0.2
2018-Jan-29 03:59N 51°58' E 001°32'0 0.1
2018-Jan-29 03:29N 51°58' E 001°32'0 0.0
2018-Jan-29 02:59N 51°58' E 001°32'0 0.0
2018-Jan-29 02:29N 51°58' E 001°32'0 0.0
2018-Jan-29 01:59N 51°58' E 001°32'0 0.0
2018-Jan-29 01:29N 51°58' E 001°32'0 0.0
2018-Jan-29 00:59N 51°58' E 001°32'0 0.0
2018-Jan-29 00:29N 51°58' E 001°32'0 0.0
2018-Jan-28 23:59N 51°58' E 001°32'0 0.0
2018-Jan-28 23:29N 51°58' E 001°32'0 0.0
2018-Jan-28 22:59N 51°58' E 001°32'0 0.0
2018-Jan-28 22:29N 51°58' E 001°32'0 0.0
2018-Jan-28 21:59N 51°58' E 001°32'0 0.0
2018-Jan-28 21:29N 51°58' E 001°32'0 0.0
2018-Jan-28 20:59N 51°58' E 001°32'0 0.0
2018-Jan-28 20:29N 51°58' E 001°32'0 0.3
2018-Jan-28 19:59N 51°58' E 001°32'0 0.2
2018-Jan-28 19:29N 51°58' E 001°31'0 0.0
2018-Jan-28 18:59N 51°58' E 001°31'0 0.0
2018-Jan-28 18:29N 51°58' E 001°31'0 0.0
2018-Jan-28 17:59N 51°58' E 001°31'0 0.0
2018-Jan-28 17:29N 51°58' E 001°31'0 0.0
2018-Jan-28 16:59N 51°58' E 001°31'0 0.1
2018-Jan-28 16:29N 51°58' E 001°31'0 0.4
2018-Jan-28 15:59N 51°58' E 001°32'0 0.2
2018-Jan-28 15:29N 51°58' E 001°32'0 0.0
2018-Jan-28 14:59N 51°58' E 001°32'0 0.0
2018-Jan-28 14:29N 51°58' E 001°32'0 0.0
2018-Jan-28 13:59N 51°58' E 001°32'0 0.0
2018-Jan-28 13:29N 51°58' E 001°32'0 0.0
2018-Jan-28 12:59N 51°58' E 001°32'0 0.0
2018-Jan-28 12:29N 51°58' E 001°32'0 0.0
2018-Jan-28 11:59N 51°58' E 001°32'0 0.0
2018-Jan-28 11:29N 51°58' E 001°32'0 0.0
2018-Jan-28 10:59N 51°58' E 001°32'0 0.0
2018-Jan-28 10:29N 51°58' E 001°32'0 0.0
2018-Jan-28 09:59N 51°58' E 001°32'0 0.1
2018-Jan-28 09:29N 51°58' E 001°32'0 0.0
2018-Jan-28 08:59N 51°58' E 001°32'0 0.0
2018-Jan-28 08:29N 51°58' E 001°32'0 0.0
2018-Jan-28 07:59N 51°58' E 001°32'0 0.1
2018-Jan-28 07:29N 51°58' E 001°32'0 0.2
2018-Jan-28 06:59N 51°58' E 001°31'0 0.1
2018-Jan-28 06:29N 51°58' E 001°31'0 0.2
2018-Jan-28 05:59N 51°58' E 001°32'1 2.2
2018-Jan-28 05:30N 51°57' E 001°33'4 7.3
2018-Jan-28 05:01N 51°53' E 001°34'4 8.1
2018-Jan-28 04:30N 51°52' E 001°40'5 9.3
2018-Jan-28 04:00N 51°51' E 001°47'4 8.8
2018-Jan-28 03:30N 51°50' E 001°54'5 9.8
2018-Jan-28 03:00N 51°52' E 002°01'5 9.2
2018-Jan-28 02:30N 51°54' E 002°08'  
Track history (hours):
 
Tides and Currents Weather Stations Pressure Air Temp Water Temp Dewpoint Dewpoint Depression Visibility Wind Speed Wind Dir Waves Ship Positions

Beautriton

Last reported at 2018-Feb-06 19:19 UTC. Time now 2018-Feb-23 16:29 UTC.
Position N 36°50' W 029°13'.
Warning: this ship's position is 16 days out of date.

Length 118 m; draft 6.6 m.

Type: Cargo ship. MMSI: 246215000.

Date/timePositionNaut miles runAvg speedWind from/ knotsBaromVisibWave heightAir tempDewpointWater temp
2018-Feb-06 19:19N 36°50' W 029°13'1212.9
2018-Feb-06 18:23N 36°58' W 029°02'612.9
2018-Feb-06 17:55N 37°02' W 028°56'512.7
2018-Feb-06 17:30N 37°05' W 028°51'612.3
2018-Feb-06 17:00N 37°09' W 028°45'611.9
2018-Feb-06 16:30N 37°13' W 028°40'611.9
2018-Feb-06 16:00N 37°17' W 028°34'612.5
2018-Feb-06 15:30N 37°22' W 028°29'1312.7
2018-Feb-06 14:30N 37°30' W 028°17'612.8
2018-Feb-06 14:00N 37°34' W 028°11'1313.1
2018-Feb-06 13:00N 37°43' W 027°59'612.9
2018-Feb-06 12:30N 37°48' W 027°53'612.6
2018-Feb-06 12:00N 37°52' W 027°47'612.6
2018-Feb-06 11:30N 37°56' W 027°41'612.6
2018-Feb-06 11:00N 38°00' W 027°35'612.8
2018-Feb-06 10:30N 38°04' W 027°28'612.7
2018-Feb-06 10:00N 38°08' W 027°22'612.7
2018-Feb-06 09:30N 38°13' W 027°16'1312.8
2018-Feb-06 08:30N 38°21' W 027°04'612.6
2018-Feb-06 08:00N 38°25' W 026°58'612.3
2018-Feb-06 07:30N 38°29' W 026°52'612.4
2018-Feb-06 07:00N 38°33' W 026°45'612.5
2018-Feb-06 06:30N 38°37' W 026°39'  
2018-Feb-02 02:57N 49°43' W 003°49'811.8
2018-Feb-02 02:15N 49°47' W 003°38'412.4
2018-Feb-02 01:55N 49°49' W 003°32'512.7
2018-Feb-02 01:30N 49°52' W 003°25'612.6
2018-Feb-02 01:00N 49°54' W 003°16'612.2
2018-Feb-02 00:30N 49°57' W 003°07'611.6
2018-Feb-02 00:00N 49°59' W 002°59'510.8
2018-Feb-01 23:30N 50°00' W 002°51'510.1
2018-Feb-01 23:00N 50°01' W 002°43'10 9.1
2018-Feb-01 21:56N 50°04' W 002°29'69 9.8
2018-Feb-01 14:57N 50°23' W 000°45'2114.3
2018-Feb-01 13:30N 50°28' W 000°14'612.9
2018-Feb-01 13:00N 50°30' W 000°04'612.5
2018-Feb-01 12:30N 50°32' E 000°05'611.9
2018-Feb-01 12:01N 50°34' E 000°14'1111.0
2018-Feb-01 11:01N 50°37' E 000°31'510.3
2018-Feb-01 10:30N 50°39' E 000°38'510.4
2018-Feb-01 10:00N 50°42' E 000°44'510.4
2018-Feb-01 09:31N 50°45' E 000°51'611.0
2018-Feb-01 09:00N 50°49' E 000°58'612.1
2018-Feb-01 08:29N 50°52' E 001°06'1414.1
2018-Feb-01 07:30N 51°02' E 001°22'815.1
2018-Feb-01 07:00N 51°06' E 001°31'714.5
2018-Feb-01 06:31N 51°12' E 001°39'713.5
2018-Feb-01 06:00N 51°18' E 001°43'612.6
2018-Feb-01 05:31N 51°24' E 001°45'611.8
2018-Feb-01 05:00N 51°30' E 001°45'611.3
2018-Feb-01 04:30N 51°36' E 001°45'510.8
2018-Feb-01 04:00N 51°41' E 001°45'10 9.7
2018-Feb-01 03:00N 51°50' E 001°40'5 9.8
2018-Feb-01 02:30N 51°53' E 001°33'4 8.5
2018-Feb-01 02:00N 51°56' E 001°28'611.2
2018-Feb-01 01:30N 51°56' E 001°19'2 4.9
2018-Feb-01 01:00N 51°58' E 001°17'2 3.8
2018-Feb-01 00:31N 51°60' E 001°15'3 6.2
2018-Feb-01 00:00N 52°01' E 001°10'1 1.3
2018-Jan-31 22:59N 52°02' E 001°10'0 0.0
2018-Jan-31 22:29N 52°02' E 001°10'0 0.0
2018-Jan-31 20:59N 52°02' E 001°10'0 0.0
2018-Jan-31 20:29N 52°02' E 001°10'0 0.0
2018-Jan-31 19:59N 52°02' E 001°10'0 0.0
2018-Jan-31 19:29N 52°02' E 001°10'0 0.0
2018-Jan-31 18:59N 52°02' E 001°10'0 0.0
2018-Jan-31 18:29N 52°02' E 001°10'0 0.0
2018-Jan-31 17:59N 52°02' E 001°10'0 0.0
2018-Jan-31 17:29N 52°02' E 001°10'0 0.0
2018-Jan-31 16:59N 52°02' E 001°10'0 0.1
2018-Jan-31 16:29N 52°02' E 001°10'0 0.0
2018-Jan-31 15:59N 52°02' E 001°10'0 0.0
2018-Jan-31 15:29N 52°02' E 001°10'0 0.0
2018-Jan-31 14:59N 52°02' E 001°10'0 0.0
2018-Jan-31 14:29N 52°02' E 001°10'0 0.0
2018-Jan-31 12:59N 52°02' E 001°10'0 0.0
2018-Jan-31 12:29N 52°02' E 001°10'0 0.0
2018-Jan-31 11:59N 52°02' E 001°10'0 0.0
2018-Jan-31 11:29N 52°02' E 001°10'0 0.0
2018-Jan-31 10:59N 52°02' E 001°10'0 0.0
2018-Jan-31 10:29N 52°02' E 001°10'0 0.0
2018-Jan-31 09:59N 52°02' E 001°10'0 0.0
2018-Jan-31 09:29N 52°02' E 001°10'0 0.0
2018-Jan-31 08:59N 52°02' E 001°10'0 0.0
2018-Jan-31 08:29N 52°02' E 001°10'0 0.0
2018-Jan-31 07:59N 52°02' E 001°10'0 0.0
2018-Jan-31 07:29N 52°02' E 001°10'0 0.0
2018-Jan-31 06:59N 52°02' E 001°10'0 0.0
2018-Jan-31 06:29N 52°02' E 001°10'0 0.0
2018-Jan-31 05:59N 52°02' E 001°10'0 0.0
2018-Jan-31 05:29N 52°02' E 001°10'0 0.0
2018-Jan-31 04:59N 52°02' E 001°10'0 0.0
2018-Jan-31 04:29N 52°02' E 001°10'0 0.0
2018-Jan-31 03:59N 52°02' E 001°10'0 0.0
2018-Jan-31 03:29N 52°02' E 001°10'0 0.0
2018-Jan-31 02:59N 52°02' E 001°10'0 0.0
2018-Jan-31 02:29N 52°02' E 001°10'0 0.0
2018-Jan-31 01:59N 52°02' E 001°10'0 0.0
2018-Jan-31 01:29N 52°02' E 001°10'0 0.0
2018-Jan-31 00:59N 52°02' E 001°10'0 0.0
2018-Jan-30 23:59N 52°02' E 001°10'0 0.0
2018-Jan-30 23:29N 52°02' E 001°10'0 0.0
2018-Jan-30 22:59N 52°02' E 001°10'0 0.0
2018-Jan-30 22:29N 52°02' E 001°10'0 0.0
2018-Jan-30 21:29N 52°02' E 001°10'0 0.2
2018-Jan-30 20:59N 52°02' E 001°09'0 0.3
2018-Jan-30 20:29N 52°02' E 001°09'0 0.0
2018-Jan-30 19:59N 52°02' E 001°09'0 0.0
2018-Jan-30 19:29N 52°02' E 001°09'0 0.0
2018-Jan-30 18:59N 52°02' E 001°09'0 0.0
2018-Jan-30 18:29N 52°02' E 001°09'0 0.0
2018-Jan-30 17:59N 52°02' E 001°09'0 0.0
2018-Jan-30 17:29N 52°02' E 001°09'0 0.0
2018-Jan-30 16:59N 52°02' E 001°09'0 0.0
2018-Jan-30 16:29N 52°02' E 001°09'0 0.0
2018-Jan-30 15:59N 52°02' E 001°09'0 0.0
2018-Jan-30 15:29N 52°02' E 001°09'0 0.0
2018-Jan-30 14:59N 52°02' E 001°09'0 0.0
2018-Jan-30 14:29N 52°02' E 001°09'0 0.0
2018-Jan-30 13:29N 52°02' E 001°09'0 0.0
2018-Jan-30 12:59N 52°02' E 001°09'0 0.0
2018-Jan-30 12:29N 52°02' E 001°09'0 0.6
2018-Jan-30 12:00N 52°02' E 001°10'3 5.4
2018-Jan-30 11:31N 52°00' E 001°13'8 8.0
2018-Jan-30 10:30N 51°56' E 001°24'5 4.9
2018-Jan-30 09:30N 51°58' E 001°31'0 0.1
2018-Jan-30 08:59N 51°58' E 001°31'0 0.0
2018-Jan-30 08:29N 51°58' E 001°31'0 0.0
2018-Jan-30 07:59N 51°58' E 001°31'0 0.0
2018-Jan-30 07:29N 51°58' E 001°31'0 0.0
2018-Jan-30 06:59N 51°58' E 001°31'0 0.0
2018-Jan-30 06:29N 51°58' E 001°31'0 0.0
2018-Jan-30 05:59N 51°58' E 001°31'0 0.0
2018-Jan-30 05:29N 51°58' E 001°31'0 0.0
2018-Jan-30 04:59N 51°58' E 001°31'0 0.2
2018-Jan-30 04:29N 51°58' E 001°32'0 0.1
2018-Jan-30 03:59N 51°58' E 001°32'0 0.1
2018-Jan-30 03:29N 51°58' E 001°32'0 0.0
2018-Jan-30 02:59N 51°58' E 001°32'0 0.0
2018-Jan-30 02:29N 51°58' E 001°32'0 0.0
2018-Jan-30 01:59N 51°58' E 001°32'0 0.0
2018-Jan-30 01:29N 51°58' E 001°32'0 0.0
2018-Jan-30 00:59N 51°58' E 001°32'0 0.0
2018-Jan-30 00:29N 51°58' E 001°32'0 0.0
2018-Jan-29 23:59N 51°58' E 001°32'0 0.0
2018-Jan-29 23:29N 51°58' E 001°32'0 0.0
2018-Jan-29 22:59N 51°58' E 001°32'0 0.1
2018-Jan-29 22:29N 51°58' E 001°32'0 0.1
2018-Jan-29 21:59N 51°58' E 001°32'0 0.2
2018-Jan-29 21:29N 51°58' E 001°32'0 0.1
2018-Jan-29 20:59N 51°58' E 001°31'0 0.1
2018-Jan-29 20:29N 51°58' E 001°31'0 0.0
2018-Jan-29 19:59N 51°58' E 001°31'0 0.0
2018-Jan-29 19:29N 51°58' E 001°31'0 0.0
2018-Jan-29 18:59N 51°58' E 001°31'0 0.0
2018-Jan-29 18:29N 51°58' E 001°31'0 0.0
2018-Jan-29 17:59N 51°58' E 001°31'0 0.0
2018-Jan-29 17:29N 51°58' E 001°31'0 0.0
2018-Jan-29 16:59N 51°58' E 001°31'0 0.1
2018-Jan-29 16:29N 51°58' E 001°31'0 0.1
2018-Jan-29 15:59N 51°58' E 001°32'0 0.1
2018-Jan-29 15:29N 51°58' E 001°32'0 0.1
2018-Jan-29 14:59N 51°58' E 001°32'0 0.1
2018-Jan-29 14:29N 51°58' E 001°32'0 0.0
2018-Jan-29 13:59N 51°58' E 001°32'0 0.0
2018-Jan-29 13:29N 51°58' E 001°32'0 0.0
2018-Jan-29 12:59N 51°58' E 001°32'0 0.0
2018-Jan-29 12:29N 51°58' E 001°32'0 0.0
2018-Jan-29 11:59N 51°58' E 001°32'0 0.0
2018-Jan-29 11:29N 51°58' E 001°32'0 0.0
2018-Jan-29 10:59N 51°58' E 001°32'0 0.0
2018-Jan-29 10:29N 51°58' E 001°32'0 0.0
2018-Jan-29 09:59N 51°58' E 001°32'0 0.0
2018-Jan-29 09:29N 51°58' E 001°32'0 0.0
2018-Jan-29 08:59N 51°58' E 001°32'0 0.3
2018-Jan-29 08:29N 51°58' E 001°32'0 0.1
2018-Jan-29 07:59N 51°58' E 001°31'0 0.0
2018-Jan-29 07:29N 51°58' E 001°31'0 0.0
2018-Jan-29 06:59N 51°58' E 001°31'0 0.0
2018-Jan-29 06:29N 51°58' E 001°31'0 0.0
2018-Jan-29 05:59N 51°58' E 001°31'0 0.0
2018-Jan-29 05:29N 51°58' E 001°31'0 0.0
2018-Jan-29 04:59N 51°58' E 001°31'0 0.3
2018-Jan-29 04:29N 51°58' E 001°32'0 0.2
2018-Jan-29 03:59N 51°58' E 001°32'0 0.1
2018-Jan-29 03:29N 51°58' E 001°32'0 0.0
2018-Jan-29 02:59N 51°58' E 001°32'0 0.0
2018-Jan-29 02:29N 51°58' E 001°32'0 0.0
2018-Jan-29 01:59N 51°58' E 001°32'0 0.0
2018-Jan-29 01:29N 51°58' E 001°32'0 0.0
2018-Jan-29 00:59N 51°58' E 001°32'0 0.0
2018-Jan-29 00:29N 51°58' E 001°32'0 0.0
2018-Jan-28 23:59N 51°58' E 001°32'0 0.0
2018-Jan-28 23:29N 51°58' E 001°32'0 0.0
2018-Jan-28 22:59N 51°58' E 001°32'0 0.0
2018-Jan-28 22:29N 51°58' E 001°32'0 0.0
2018-Jan-28 21:59N 51°58' E 001°32'0 0.0
2018-Jan-28 21:29N 51°58' E 001°32'0 0.0
2018-Jan-28 20:59N 51°58' E 001°32'0 0.0
2018-Jan-28 20:29N 51°58' E 001°32'0 0.3
2018-Jan-28 19:59N 51°58' E 001°32'0 0.2
2018-Jan-28 19:29N 51°58' E 001°31'0 0.0
2018-Jan-28 18:59N 51°58' E 001°31'0 0.0
2018-Jan-28 18:29N 51°58' E 001°31'0 0.0
2018-Jan-28 17:59N 51°58' E 001°31'0 0.0
2018-Jan-28 17:29N 51°58' E 001°31'0 0.0
2018-Jan-28 16:59N 51°58' E 001°31'0 0.1
2018-Jan-28 16:29N 51°58' E 001°31'0 0.4
2018-Jan-28 15:59N 51°58' E 001°32'0 0.2
2018-Jan-28 15:29N 51°58' E 001°32'0 0.0
2018-Jan-28 14:59N 51°58' E 001°32'0 0.0
2018-Jan-28 14:29N 51°58' E 001°32'0 0.0
2018-Jan-28 13:59N 51°58' E 001°32'0 0.0
2018-Jan-28 13:29N 51°58' E 001°32'0 0.0
2018-Jan-28 12:59N 51°58' E 001°32'0 0.0
2018-Jan-28 12:29N 51°58' E 001°32'0 0.0
2018-Jan-28 11:59N 51°58' E 001°32'0 0.0
2018-Jan-28 11:29N 51°58' E 001°32'0 0.0
2018-Jan-28 10:59N 51°58' E 001°32'0 0.0
2018-Jan-28 10:29N 51°58' E 001°32'0 0.0
2018-Jan-28 09:59N 51°58' E 001°32'0 0.1
2018-Jan-28 09:29N 51°58' E 001°32'0 0.0
2018-Jan-28 08:59N 51°58' E 001°32'0 0.0
2018-Jan-28 08:29N 51°58' E 001°32'0 0.0
2018-Jan-28 07:59N 51°58' E 001°32'0 0.1
2018-Jan-28 07:29N 51°58' E 001°32'0 0.2
2018-Jan-28 06:59N 51°58' E 001°31'0 0.1
2018-Jan-28 06:29N 51°58' E 001°31'0 0.2
2018-Jan-28 05:59N 51°58' E 001°32'1 2.2
2018-Jan-28 05:30N 51°57' E 001°33'4 7.3
2018-Jan-28 05:01N 51°53' E 001°34'4 8.1
2018-Jan-28 04:30N 51°52' E 001°40'5 9.3
2018-Jan-28 04:00N 51°51' E 001°47'4 8.8
2018-Jan-28 03:30N 51°50' E 001°54'5 9.8
2018-Jan-28 03:00N 51°52' E 002°01'5 9.2
2018-Jan-28 02:30N 51°54' E 002°08'  

Dump ship's entire track history